Nickelena — WDER746 — position and weather

sailwx.info

Track history (hours):
 
Tides and Currents Weather Stations Pressure Air Temp Water Temp Dewpoint Dewpoint Depression Visibility Wind Speed Wind Dir Waves Ship Positions

Nickelena

Last reported at 2016-Jun-29 07:26 UTC. Time now 2016-Jul-01 17:14 UTC.
Position N 45°45' W 087°03'.

Length 33 m.

Type: Tug. MMSI: 367393840.

Date/timePositionNaut miles runAvg speedWind from/ knotsBaromVisibWave heightAir tempDewpointWater temp
2016-Jun-29 07:26N 45°45' W 087°03'0 0.0
2016-Jun-29 06:32N 45°45' W 087°03'0 0.0
2016-Jun-29 05:33N 45°45' W 087°03'44 4.7
2016-Jun-28 20:16N 45°29' W 086°05'6 9.2
2016-Jun-28 19:33N 45°29' W 085°56'9 9.0
2016-Jun-28 18:33N 45°26' W 085°44'9 9.2
2016-Jun-28 17:33N 45°23' W 085°31'9 9.2
2016-Jun-28 16:33N 45°21' W 085°18'2 1.7
2016-Jun-28 15:33N 45°19' W 085°18'0 0.1
2016-Jun-28 14:33N 45°19' W 085°18'0 0.0
2016-Jun-28 13:33N 45°19' W 085°18'0 0.0
2016-Jun-28 12:33N 45°19' W 085°18'0 0.0
2016-Jun-28 11:33N 45°19' W 085°18'0 0.0
2016-Jun-28 10:33N 45°19' W 085°18'0 0.0
2016-Jun-28 09:33N 45°19' W 085°18'0 0.0
2016-Jun-28 08:33N 45°19' W 085°18'0 0.0
2016-Jun-28 07:33N 45°19' W 085°18'0 0.0
2016-Jun-28 06:33N 45°19' W 085°18'0 0.0
2016-Jun-28 04:33N 45°19' W 085°18'0 0.0
2016-Jun-28 03:33N 45°19' W 085°18'0 0.0
2016-Jun-28 02:33N 45°19' W 085°18'0 0.0
2016-Jun-28 01:33N 45°19' W 085°18'0 0.0
2016-Jun-28 00:33N 45°19' W 085°18'0 0.0
2016-Jun-27 23:33N 45°19' W 085°18'0 0.0
2016-Jun-27 22:34N 45°19' W 085°18'0 0.0
2016-Jun-27 21:33N 45°19' W 085°18'1 0.6
2016-Jun-27 20:33N 45°19' W 085°17'1 0.6
2016-Jun-27 19:33N 45°19' W 085°18'0 0.0
2016-Jun-27 18:33N 45°19' W 085°18'0 0.0
2016-Jun-27 17:33N 45°19' W 085°18'0 0.0
2016-Jun-27 16:33N 45°19' W 085°18'0 0.0
2016-Jun-27 15:33N 45°19' W 085°18'0 0.0
2016-Jun-27 14:33N 45°19' W 085°18'0 0.0
2016-Jun-27 13:33N 45°19' W 085°18'0 0.1
2016-Jun-27 12:33N 45°19' W 085°18'0 0.1
2016-Jun-27 11:33N 45°19' W 085°18'0 0.3
2016-Jun-27 10:33N 45°19' W 085°17'0 0.0
2016-Jun-27 09:33N 45°19' W 085°17'0 0.0
2016-Jun-27 08:33N 45°19' W 085°17'0 0.0
2016-Jun-27 07:34N 45°19' W 085°17'0 0.0
2016-Jun-27 06:33N 45°19' W 085°17'0 0.0
2016-Jun-27 05:34N 45°19' W 085°17'0 0.0
2016-Jun-27 04:33N 45°19' W 085°17'0 0.0
2016-Jun-27 03:33N 45°19' W 085°17'0 0.0
2016-Jun-27 02:33N 45°19' W 085°17'0 0.0
2016-Jun-27 01:33N 45°19' W 085°17'0 0.0
2016-Jun-27 00:33N 45°19' W 085°17'0 0.0
2016-Jun-26 23:33N 45°19' W 085°17'0 0.0
2016-Jun-26 22:33N 45°19' W 085°17'0 0.0
2016-Jun-26 21:33N 45°19' W 085°17'0 0.0
2016-Jun-26 20:33N 45°19' W 085°17'0 0.0
2016-Jun-26 19:33N 45°19' W 085°17'0 0.0
2016-Jun-26 18:33N 45°19' W 085°17'0 0.0
2016-Jun-26 17:33N 45°19' W 085°17'0 0.0
2016-Jun-26 16:33N 45°19' W 085°17'0 0.0
2016-Jun-26 15:33N 45°19' W 085°17'0 0.0
2016-Jun-26 14:33N 45°19' W 085°17'0 0.0
2016-Jun-26 13:33N 45°19' W 085°17'0 0.0
2016-Jun-26 12:33N 45°19' W 085°17'0 0.0
2016-Jun-26 11:33N 45°19' W 085°17'0 0.0
2016-Jun-26 10:34N 45°19' W 085°17'0 0.0
2016-Jun-26 09:33N 45°19' W 085°17'2 1.5
2016-Jun-26 08:33N 45°21' W 085°17'5 4.9
2016-Jun-26 07:33N 45°20' W 085°23'  
Track history (hours):
 
Tides and Currents Weather Stations Pressure Air Temp Water Temp Dewpoint Dewpoint Depression Visibility Wind Speed Wind Dir Waves Ship Positions

Nickelena

Last reported at 2016-Jun-29 07:26 UTC. Time now 2016-Jul-01 17:14 UTC.
Position N 45°45' W 087°03'.

Length 33 m.

Type: Tug. MMSI: 367393840.

Date/timePositionNaut miles runAvg speedWind from/ knotsBaromVisibWave heightAir tempDewpointWater temp
2016-Jun-29 07:26N 45°45' W 087°03'0 0.0
2016-Jun-29 06:32N 45°45' W 087°03'0 0.0
2016-Jun-29 05:33N 45°45' W 087°03'44 4.7
2016-Jun-28 20:16N 45°29' W 086°05'6 9.2
2016-Jun-28 19:33N 45°29' W 085°56'9 9.0
2016-Jun-28 18:33N 45°26' W 085°44'9 9.2
2016-Jun-28 17:33N 45°23' W 085°31'9 9.2
2016-Jun-28 16:33N 45°21' W 085°18'2 1.7
2016-Jun-28 15:33N 45°19' W 085°18'0 0.1
2016-Jun-28 14:33N 45°19' W 085°18'0 0.0
2016-Jun-28 13:33N 45°19' W 085°18'0 0.0
2016-Jun-28 12:33N 45°19' W 085°18'0 0.0
2016-Jun-28 11:33N 45°19' W 085°18'0 0.0
2016-Jun-28 10:33N 45°19' W 085°18'0 0.0
2016-Jun-28 09:33N 45°19' W 085°18'0 0.0
2016-Jun-28 08:33N 45°19' W 085°18'0 0.0
2016-Jun-28 07:33N 45°19' W 085°18'0 0.0
2016-Jun-28 06:33N 45°19' W 085°18'0 0.0
2016-Jun-28 04:33N 45°19' W 085°18'0 0.0
2016-Jun-28 03:33N 45°19' W 085°18'0 0.0
2016-Jun-28 02:33N 45°19' W 085°18'0 0.0
2016-Jun-28 01:33N 45°19' W 085°18'0 0.0
2016-Jun-28 00:33N 45°19' W 085°18'0 0.0
2016-Jun-27 23:33N 45°19' W 085°18'0 0.0
2016-Jun-27 22:34N 45°19' W 085°18'0 0.0
2016-Jun-27 21:33N 45°19' W 085°18'1 0.6
2016-Jun-27 20:33N 45°19' W 085°17'1 0.6
2016-Jun-27 19:33N 45°19' W 085°18'0 0.0
2016-Jun-27 18:33N 45°19' W 085°18'0 0.0
2016-Jun-27 17:33N 45°19' W 085°18'0 0.0
2016-Jun-27 16:33N 45°19' W 085°18'0 0.0
2016-Jun-27 15:33N 45°19' W 085°18'0 0.0
2016-Jun-27 14:33N 45°19' W 085°18'0 0.0
2016-Jun-27 13:33N 45°19' W 085°18'0 0.1
2016-Jun-27 12:33N 45°19' W 085°18'0 0.1
2016-Jun-27 11:33N 45°19' W 085°18'0 0.3
2016-Jun-27 10:33N 45°19' W 085°17'0 0.0
2016-Jun-27 09:33N 45°19' W 085°17'0 0.0
2016-Jun-27 08:33N 45°19' W 085°17'0 0.0
2016-Jun-27 07:34N 45°19' W 085°17'0 0.0
2016-Jun-27 06:33N 45°19' W 085°17'0 0.0
2016-Jun-27 05:34N 45°19' W 085°17'0 0.0
2016-Jun-27 04:33N 45°19' W 085°17'0 0.0
2016-Jun-27 03:33N 45°19' W 085°17'0 0.0
2016-Jun-27 02:33N 45°19' W 085°17'0 0.0
2016-Jun-27 01:33N 45°19' W 085°17'0 0.0
2016-Jun-27 00:33N 45°19' W 085°17'0 0.0
2016-Jun-26 23:33N 45°19' W 085°17'0 0.0
2016-Jun-26 22:33N 45°19' W 085°17'0 0.0
2016-Jun-26 21:33N 45°19' W 085°17'0 0.0
2016-Jun-26 20:33N 45°19' W 085°17'0 0.0
2016-Jun-26 19:33N 45°19' W 085°17'0 0.0
2016-Jun-26 18:33N 45°19' W 085°17'0 0.0
2016-Jun-26 17:33N 45°19' W 085°17'0 0.0
2016-Jun-26 16:33N 45°19' W 085°17'0 0.0
2016-Jun-26 15:33N 45°19' W 085°17'0 0.0
2016-Jun-26 14:33N 45°19' W 085°17'0 0.0
2016-Jun-26 13:33N 45°19' W 085°17'0 0.0
2016-Jun-26 12:33N 45°19' W 085°17'0 0.0
2016-Jun-26 11:33N 45°19' W 085°17'0 0.0
2016-Jun-26 10:34N 45°19' W 085°17'0 0.0
2016-Jun-26 09:33N 45°19' W 085°17'2 1.5
2016-Jun-26 08:33N 45°21' W 085°17'5 4.9
2016-Jun-26 07:33N 45°20' W 085°23'  

Dump ship's entire track history